Time;durP1;ratioP1;P1;durP2;ratioP2;P2;SDS_P1;SDS_P2;PMS_P1;PMS_P2;Temp;Humidity;BMP_temperature;BMP_pressure;BME280_temperature;BME280_humidity;BME280_pressure;Samples;Min_cycle;Max_cycle;Signal;HPM_P1;HPM_P2
2022/03/04 00:00:44;;;;;;;9.63;7.73;;;;;;;;;;5055289;28;20198;-79
2022/03/04 00:03:12;;;;;;;12.37;8.13;;;;;;;;;;5054811;28;20205;-79
2022/03/04 00:05:39;;;;;;;7.37;6.63;;;;;;;;;;5054930;28;20201;-80
2022/03/04 00:08:07;;;;;;;13.37;8.13;;;;;;;;;;5054753;28;20630;-80
2022/03/04 00:10:34;;;;;;;8.27;7.37;;;;;;;;;;5055012;28;20194;-81
2022/03/04 00:13:02;;;;;;;10.30;7.37;;;;;;;;;;5063959;28;20588;-81
2022/03/04 00:15:29;;;;;;;7.90;7.17;;;;;;;;;;5074765;28;20201;-82
2022/03/04 00:17:58;;;;;;;7.77;6.97;;;;;;;;;;5074584;28;20195;-81
2022/03/04 00:20:25;;;;;;;8.03;5.90;;;;;;;;;;5074604;28;20213;-81
2022/03/04 00:22:52;;;;;;;6.77;6.07;;;;;;;;;;5057038;28;20241;-81
2022/03/04 00:25:21;;;;;;;9.10;6.20;;;;;;;;;;5054485;28;20233;-82
2022/03/04 00:27:49;;;;;;;7.63;5.93;;;;;;;;;;5054458;28;20186;-81
2022/03/04 00:30:16;;;;;;;6.30;5.63;;;;;;;;;;5054191;28;20289;-81
2022/03/04 00:32:43;;;;;;;9.73;7.10;;;;;;;;;;5054033;28;20722;-81
2022/03/04 00:35:13;;;;;;;9.00;6.20;;;;;;;;;;5054677;28;20601;-81
2022/03/04 00:37:40;;;;;;;8.70;7.27;;;;;;;;;;5054192;28;20205;-81
2022/03/04 00:40:09;;;;;;;12.80;10.73;;;;;;;;;;5054070;28;20747;-81
2022/03/04 00:42:36;;;;;;;15.13;10.40;;;;;;;;;;5054338;28;20201;-81
2022/03/04 00:45:04;;;;;;;15.03;10.37;;;;;;;;;;5054182;28;20285;-80
2022/03/04 00:47:31;;;;;;;12.87;10.40;;;;;;;;;;5052387;28;20202;-81
2022/03/04 00:50:01;;;;;;;11.63;8.40;;;;;;;;;;5053864;28;20197;-80
2022/03/04 00:52:30;;;;;;;9.23;7.83;;;;;;;;;;5053879;28;20217;-80
2022/03/04 00:54:58;;;;;;;12.13;8.50;;;;;;;;;;5054310;28;20194;-81
2022/03/04 00:57:25;;;;;;;9.03;8.10;;;;;;;;;;5053729;28;20583;-81
2022/03/04 00:59:52;;;;;;;8.20;7.40;;;;;;;;;;5053853;28;20260;-82
2022/03/04 01:02:20;;;;;;;9.27;7.60;;;;;;;;;;5053681;28;20230;-81
2022/03/04 01:04:47;;;;;;;14.40;8.33;;;;;;;;;;5053762;28;20197;-82
2022/03/04 01:07:14;;;;;;;10.60;7.87;;;;;;;;;;5053364;28;20201;-81
2022/03/04 01:09:43;;;;;;;9.23;6.57;;;;;;;;;;5053672;28;20293;-81
2022/03/04 01:12:11;;;;;;;8.03;7.00;;;;;;;;;;5053508;28;20264;-81
2022/03/04 01:14:38;;;;;;;7.20;6.47;;;;;;;;;;5053877;28;20205;-82
2022/03/04 01:17:05;;;;;;;6.93;6.23;;;;;;;;;;5070366;28;20212;-81
2022/03/04 01:19:33;;;;;;;7.60;6.43;;;;;;;;;;5073453;28;20284;-81
2022/03/04 01:22:00;;;;;;;6.77;6.07;;;;;;;;;;5066913;28;20288;-82
2022/03/04 01:24:27;;;;;;;8.50;6.63;;;;;;;;;;5053246;28;20204;-82
2022/03/04 01:26:56;;;;;;;7.53;6.73;;;;;;;;;;5053017;28;20273;-81
2022/03/04 01:29:23;;;;;;;8.53;7.37;;;;;;;;;;5053509;28;20205;-81
2022/03/04 01:31:50;;;;;;;7.47;6.50;;;;;;;;;;5061049;28;20366;-81
2022/03/04 01:34:18;;;;;;;9.17;7.47;;;;;;;;;;5073094;28;20745;-81
2022/03/04 01:36:45;;;;;;;12.43;9.93;;;;;;;;;;5072985;28;20197;-81
2022/03/04 01:39:12;;;;;;;13.80;9.90;;;;;;;;;;5073171;28;20232;-82
2022/03/04 01:41:39;;;;;;;18.67;10.30;;;;;;;;;;5072762;28;20290;-81
2022/03/04 01:44:08;;;;;;;10.53;8.63;;;;;;;;;;5072885;28;20232;-81
2022/03/04 01:46:36;;;;;;;14.70;10.50;;;;;;;;;;5072793;28;20204;-82
2022/03/04 01:49:04;;;;;;;14.03;9.67;;;;;;;;;;5072904;28;20205;-82
2022/03/04 01:51:31;;;;;;;8.70;7.17;;;;;;;;;;5069657;28;20328;-81
2022/03/04 01:53:58;;;;;;;7.87;6.43;;;;;;;;;;5053140;28;20667;-82
2022/03/04 01:56:26;;;;;;;7.77;6.73;;;;;;;;;;5052758;28;20280;-81
2022/03/04 01:58:53;;;;;;;9.30;6.73;;;;;;;;;;5052624;28;20224;-81
2022/03/04 02:01:22;;;;;;;9.47;6.90;;;;;;;;;;5052871;28;20582;-81
2022/03/04 02:03:49;;;;;;;8.20;7.43;;;;;;;;;;5052342;28;20202;-81
2022/03/04 02:06:17;;;;;;;7.07;6.37;;;;;;;;;;5052431;28;20194;-82
2022/03/04 02:08:44;;;;;;;8.73;6.67;;;;;;;;;;5052433;28;20738;-82
2022/03/04 02:11:11;;;;;;;7.20;6.43;;;;;;;;;;5052152;28;20208;-82
2022/03/04 02:13:39;;;;;;;9.27;8.20;;;;;;;;;;5066657;28;20208;-81
2022/03/04 02:16:12;;;;;;;9.07;8.13;;;;;;;;;;5072523;28;20193;-81
2022/03/04 02:18:41;;;;;;;9.70;8.17;;;;;;;;;;5072340;28;20276;-82
2022/03/04 02:21:09;;;;;;;14.83;9.60;;;;;;;;;;5072100;28;20209;-81
2022/03/04 02:23:38;;;;;;;10.20;8.43;;;;;;;;;;5072441;28;20598;-82
2022/03/04 02:26:05;;;;;;;10.30;9.13;;;;;;;;;;5072069;28;20239;-81
2022/03/04 02:28:33;;;;;;;9.30;7.90;;;;;;;;;;5071935;28;20197;-81
2022/03/04 02:31:00;;;;;;;8.17;7.33;;;;;;;;;;5072308;28;20646;-81
2022/03/04 02:33:27;;;;;;;10.80;8.03;;;;;;;;;;5071934;28;20670;-81
2022/03/04 02:35:55;;;;;;;38.93;30.20;;;;;;;;;;5072537;28;20644;-81
2022/03/04 02:38:22;;;;;;;9.77;8.77;;;;;;;;;;5072032;28;20288;-81
2022/03/04 02:40:51;;;;;;;10.03;7.63;;;;;;;;;;5072119;28;20283;-82
2022/03/04 02:43:18;;;;;;;8.37;7.57;;;;;;;;;;5071899;28;20199;-81
2022/03/04 02:45:46;;;;;;;16.23;12.23;;;;;;;;;;5072020;28;20197;-82
2022/03/04 02:48:13;;;;;;;10.63;9.27;;;;;;;;;;5071599;28;20710;-81
2022/03/04 02:50:40;;;;;;;10.27;8.20;;;;;;;;;;5071997;28;20735;-82
2022/03/04 02:53:08;;;;;;;9.60;8.20;;;;;;;;;;5071741;28;20225;-81
2022/03/04 02:55:35;;;;;;;10.27;7.63;;;;;;;;;;5071939;28;20197;-81
2022/03/04 02:58:04;;;;;;;9.33;7.33;;;;;;;;;;5060664;28;20208;-80
2022/03/04 03:00:31;;;;;;;7.40;6.60;;;;;;;;;;5051956;28;20205;-82
2022/03/04 03:02:59;;;;;;;7.13;6.23;;;;;;;;;;5051542;28;20190;-81
2022/03/04 03:05:26;;;;;;;8.77;6.87;;;;;;;;;;5052178;28;20220;-81
2022/03/04 03:07:53;;;;;;;7.80;6.90;;;;;;;;;;5051342;28;20208;-80
2022/03/04 03:10:21;;;;;;;7.27;6.47;;;;;;;;;;5054112;28;20644;-81
2022/03/04 03:12:48;;;;;;;9.77;7.17;;;;;;;;;;5056013;28;20221;-81
2022/03/04 03:15:17;;;;;;;10.63;7.30;;;;;;;;;;5056196;28;20224;-81
2022/03/04 03:17:44;;;;;;;9.97;7.50;;;;;;;;;;5055626;28;20296;-81
2022/03/04 03:20:13;;;;;;;10.20;7.80;;;;;;;;;;5055519;28;20709;-81
2022/03/04 03:22:40;;;;;;;10.37;8.37;;;;;;;;;;5055426;28;20289;-81
2022/03/04 03:25:08;;;;;;;8.37;7.07;;;;;;;;;;5055574;28;20244;-80
2022/03/04 03:27:36;;;;;;;7.13;6.20;;;;;;;;;;5055511;28;21016;-81
2022/03/04 03:30:04;;;;;;;8.33;7.07;;;;;;;;;;5055933;28;20198;-81
2022/03/04 03:32:33;;;;;;;14.10;10.60;;;;;;;;;;5055643;28;20316;-81
2022/03/04 03:35:00;;;;;;;29.07;20.13;;;;;;;;;;5055942;28;20197;-81
2022/03/04 03:37:27;;;;;;;21.77;16.43;;;;;;;;;;5055055;28;20190;-81
2022/03/04 03:39:55;;;;;;;12.90;10.90;;;;;;;;;;5055418;28;20198;-81
2022/03/04 03:42:22;;;;;;;11.60;9.70;;;;;;;;;;5055249;28;20240;-81
2022/03/04 03:44:49;;;;;;;9.73;8.70;;;;;;;;;;5055268;28;20198;-81
2022/03/04 03:47:17;;;;;;;10.50;8.50;;;;;;;;;;5055379;28;20201;-81
2022/03/04 03:49:45;;;;;;;12.03;8.90;;;;;;;;;;5054994;28;20202;-81
2022/03/04 03:52:13;;;;;;;10.87;8.33;;;;;;;;;;5055249;28;20225;-81
2022/03/04 03:54:40;;;;;;;11.07;7.03;;;;;;;;;;5055177;28;20235;-80
2022/03/04 03:57:08;;;;;;;8.13;7.33;;;;;;;;;;5054939;28;20567;-80
2022/03/04 03:59:35;;;;;;;10.67;7.77;;;;;;;;;;5054969;28;20220;-81
2022/03/04 04:02:02;;;;;;;8.83;7.37;;;;;;;;;;5054946;28;20202;-81
2022/03/04 04:04:34;;;;;;;9.37;8.40;;;;;;;;;;5054889;28;20202;-81
2022/03/04 04:07:03;;;;;;;9.77;7.63;;;;;;;;;;5054795;28;20182;-80
2022/03/04 04:09:30;;;;;;;7.43;6.73;;;;;;;;;;5054705;28;20276;-80
2022/03/04 04:11:58;;;;;;;8.27;7.47;;;;;;;;;;5054644;28;20234;-80
2022/03/04 04:14:26;;;;;;;7.77;6.97;;;;;;;;;;5054799;28;20292;-81
2022/03/04 04:16:53;;;;;;;8.83;7.93;;;;;;;;;;5054776;28;20232;-81
2022/03/04 04:19:21;;;;;;;7.77;6.97;;;;;;;;;;5057264;28;20729;-83
2022/03/04 04:21:49;;;;;;;7.47;6.77;;;;;;;;;;5073563;28;20193;-83
2022/03/04 04:24:18;;;;;;;7.97;6.80;;;;;;;;;;5066551;28;20201;-80
2022/03/04 04:26:46;;;;;;;9.43;7.50;;;;;;;;;;5055184;28;20237;-81
2022/03/04 04:29:13;;;;;;;10.43;7.97;;;;;;;;;;5053632;28;20209;-81
2022/03/04 04:31:41;;;;;;;9.23;8.33;;;;;;;;;;5053689;28;20198;-81
2022/03/04 04:34:09;;;;;;;9.33;8.33;;;;;;;;;;5053474;28;20229;-81
2022/03/04 04:36:36;;;;;;;8.33;7.53;;;;;;;;;;5052892;28;20204;-81
2022/03/04 04:39:04;;;;;;;8.83;7.50;;;;;;;;;;5053397;28;20200;-81
2022/03/04 04:41:34;;;;;;;10.13;6.80;;;;;;;;;;5053171;28;20683;-81
2022/03/04 04:44:01;;;;;;;10.03;7.60;;;;;;;;;;5053448;28;20281;-81
2022/03/04 04:46:29;;;;;;;9.87;8.37;;;;;;;;;;5053225;28;20577;-81
2022/03/04 04:48:56;;;;;;;12.63;7.63;;;;;;;;;;5052657;28;20200;-81
2022/03/04 04:51:23;;;;;;;9.30;7.90;;;;;;;;;;5052948;28;20288;-81
2022/03/04 04:53:52;;;;;;;8.63;7.33;;;;;;;;;;5052804;28;20232;-81
2022/03/04 04:56:19;;;;;;;8.73;7.53;;;;;;;;;;5052431;28;20238;-81
2022/03/04 04:58:48;;;;;;;10.47;7.47;;;;;;;;;;5052731;28;20208;-81
2022/03/04 05:01:16;;;;;;;10.70;7.97;;;;;;;;;;5052770;28;20198;-81
2022/03/04 05:03:44;;;;;;;9.93;7.30;;;;;;;;;;5053940;28;20198;-85
2022/03/04 05:06:11;;;;;;;8.67;7.67;;;;;;;;;;5067133;28;20208;-82
2022/03/04 05:08:38;;;;;;;17.63;14.53;;;;;;;;;;5072457;28;20208;-82
2022/03/04 05:11:06;;;;;;;45.40;32.37;;;;;;;;;;5069585;28;20267;-83
2022/03/04 05:13:33;;;;;;;43.77;27.27;;;;;;;;;;5052025;28;20226;-84
2022/03/04 05:16:02;;;;;;;33.43;21.27;;;;;;;;;;5061678;28;20223;-82
2022/03/04 05:18:29;;;;;;;23.57;15.97;;;;;;;;;;5072659;28;20276;-81
2022/03/04 05:20:56;;;;;;;27.23;21.07;;;;;;;;;;5072398;28;20617;-81
2022/03/04 05:26:08;;;;;;;18.07;13.77;;;;;;;;;;5072721;28;20248;-81
2022/03/04 05:28:35;;;;;;;13.83;11.40;;;;;;;;;;5073306;28;20254;-80
2022/03/04 05:31:05;;;;;;;14.00;10.97;;;;;;;;;;5073553;28;20197;-81
2022/03/04 05:33:32;;;;;;;14.10;11.43;;;;;;;;;;5072225;28;20224;-81
2022/03/04 05:36:01;;;;;;;18.50;12.37;;;;;;;;;;5073351;28;20237;-81
2022/03/04 05:38:28;;;;;;;17.00;13.60;;;;;;;;;;5073355;28;20197;-81
2022/03/04 05:40:55;;;;;;;19.73;14.30;;;;;;;;;;5073255;28;20566;-82
2022/03/04 05:43:23;;;;;;;18.53;13.13;;;;;;;;;;5072955;28;20284;-81
2022/03/04 05:45:51;;;;;;;19.90;16.87;;;;;;;;;;5073453;28;20281;-81
2022/03/04 05:48:20;;;;;;;21.93;15.10;;;;;;;;;;5072760;28;20193;-81
2022/03/04 05:50:47;;;;;;;29.40;19.73;;;;;;;;;;5072717;28;20189;-81
2022/03/04 05:53:15;;;;;;;30.77;21.90;;;;;;;;;;5072707;28;20779;-81
2022/03/04 05:55:42;;;;;;;33.00;24.33;;;;;;;;;;5072826;28;20204;-82
2022/03/04 05:58:10;;;;;;;22.00;16.87;;;;;;;;;;5072695;28;20650;-82
2022/03/04 06:00:38;;;;;;;22.87;15.47;;;;;;;;;;5072610;28;20201;-82
2022/03/04 06:03:05;;;;;;;26.00;17.90;;;;;;;;;;5072464;28;20287;-82
2022/03/04 06:05:33;;;;;;;26.27;17.33;;;;;;;;;;5067784;28;20202;-81
2022/03/04 06:08:01;;;;;;;22.97;16.63;;;;;;;;;;5061263;28;20694;-81
2022/03/04 06:10:28;;;;;;;21.60;15.90;;;;;;;;;;5058568;28;20232;-81
2022/03/04 06:12:55;;;;;;;22.17;14.97;;;;;;;;;;5061287;28;20225;-82
2022/03/04 06:15:23;;;;;;;24.27;17.63;;;;;;;;;;5072479;28;20201;-82
2022/03/04 06:17:51;;;;;;;25.93;19.73;;;;;;;;;;5072310;28;20212;-81
2022/03/04 06:20:19;;;;;;;20.37;14.90;;;;;;;;;;5072711;28;20582;-82
2022/03/04 06:22:48;;;;;;;18.87;14.80;;;;;;;;;;5071944;28;20686;-81
2022/03/04 06:25:16;;;;;;;21.83;16.57;;;;;;;;;;5072168;28;20268;-82
2022/03/04 06:27:52;;;;;;;26.03;18.47;;;;;;;;;;5072525;28;20185;-82
2022/03/04 06:30:20;;;;;;;26.77;17.77;;;;;;;;;;5072379;28;20184;-82
2022/03/04 06:32:47;;;;;;;19.00;14.27;;;;;;;;;;5071966;28;20228;-82
2022/03/04 06:35:14;;;;;;;17.03;13.63;;;;;;;;;;5072134;28;20662;-82
2022/03/04 06:37:42;;;;;;;19.40;14.13;;;;;;;;;;5071999;28;20197;-81
2022/03/04 06:40:12;;;;;;;19.67;15.43;;;;;;;;;;5071987;28;20197;-82
2022/03/04 06:42:39;;;;;;;30.67;24.07;;;;;;;;;;5072122;28;20637;-83
2022/03/04 06:45:08;;;;;;;27.97;21.63;;;;;;;;;;5072147;28;20202;-82
2022/03/04 06:47:35;;;;;;;16.73;14.93;;;;;;;;;;5065324;28;20303;-82
2022/03/04 06:50:03;;;;;;;20.33;15.47;;;;;;;;;;5065217;28;20212;-82
2022/03/04 06:52:30;;;;;;;19.93;16.33;;;;;;;;;;5071709;28;20201;-82
2022/03/04 06:54:57;;;;;;;40.97;29.83;;;;;;;;;;5071862;28;20221;-82
2022/03/04 06:57:26;;;;;;;20.93;16.80;;;;;;;;;;5071395;28;20212;-82
2022/03/04 06:59:53;;;;;;;34.13;22.87;;;;;;;;;;5071771;28;20197;-82
2022/03/04 07:02:20;;;;;;;47.27;32.17;;;;;;;;;;5071640;28;20193;-83
2022/03/04 07:04:49;;;;;;;33.87;23.10;;;;;;;;;;5071815;28;20280;-82
2022/03/04 07:07:16;;;;;;;29.40;21.13;;;;;;;;;;5071605;28;20201;-83
2022/03/04 07:09:43;;;;;;;20.07;15.30;;;;;;;;;;5071564;28;20197;-83
2022/03/04 07:12:10;;;;;;;20.10;15.43;;;;;;;;;;5071564;28;20197;-83
2022/03/04 07:14:39;;;;;;;47.53;34.90;;;;;;;;;;5071699;28;20225;-83
2022/03/04 07:17:06;;;;;;;37.30;28.17;;;;;;;;;;5071438;28;20196;-83
2022/03/04 07:19:33;;;;;;;25.63;19.20;;;;;;;;;;5071306;28;20200;-83
2022/03/04 07:22:00;;;;;;;26.23;19.73;;;;;;;;;;5071434;28;20681;-83
2022/03/04 07:24:27;;;;;;;21.63;17.47;;;;;;;;;;5071643;28;20716;-83
2022/03/04 07:26:55;;;;;;;23.13;17.80;;;;;;;;;;5069502;28;20629;-83
2022/03/04 07:29:22;;;;;;;22.77;20.30;;;;;;;;;;5070608;28;20583;-83
2022/03/04 07:31:53;;;;;;;17.40;14.47;;;;;;;;;;5070988;28;20196;-83
2022/03/04 07:34:20;;;;;;;19.70;17.27;;;;;;;;;;5071484;28;20208;-83
2022/03/04 07:36:47;;;;;;;21.07;17.23;;;;;;;;;;5071242;28;20209;-83
2022/03/04 07:39:15;;;;;;;38.23;27.33;;;;;;;;;;5071418;28;20193;-83
2022/03/04 07:41:42;;;;;;;34.13;21.97;;;;;;;;;;5071067;28;20208;-83
2022/03/04 07:44:10;;;;;;;21.80;17.97;;;;;;;;;;5071440;28;20193;-83
2022/03/04 07:46:37;;;;;;;18.80;14.77;;;;;;;;;;5071106;28;20193;-83
2022/03/04 07:49:06;;;;;;;23.27;17.93;;;;;;;;;;5071692;28;20617;-83
2022/03/04 07:51:34;;;;;;;22.63;16.43;;;;;;;;;;5071332;28;20201;-82
2022/03/04 07:54:01;;;;;;;16.67;12.10;;;;;;;;;;5071316;28;20224;-83
2022/03/04 07:56:28;;;;;;;16.87;13.80;;;;;;;;;;5073372;28;20209;-83
2022/03/04 07:58:55;;;;;;;14.07;11.57;;;;;;;;;;5074951;28;20205;-83
2022/03/04 08:01:22;;;;;;;17.07;10.73;;;;;;;;;;5075022;28;20201;-83
2022/03/04 08:03:50;;;;;;;12.93;10.63;;;;;;;;;;5074594;28;20196;-83
2022/03/04 08:06:18;;;;;;;12.07;10.60;;;;;;;;;;5074703;28;20193;-82
2022/03/04 08:08:45;;;;;;;14.63;10.90;;;;;;;;;;5074777;28;20641;-82
2022/03/04 08:11:13;;;;;;;14.70;11.27;;;;;;;;;;5074659;28;20197;-82
2022/03/04 08:13:40;;;;;;;12.57;9.40;;;;;;;;;;5074209;28;20239;-82
2022/03/04 08:16:07;;;;;;;17.53;10.30;;;;;;;;;;5074606;28;20201;-82
2022/03/04 08:18:34;;;;;;;10.57;8.57;;;;;;;;;;5074654;28;20193;-82
2022/03/04 08:21:01;;;;;;;11.40;9.00;;;;;;;;;;5074922;28;20204;-81
2022/03/04 08:23:30;;;;;;;22.70;15.67;;;;;;;;;;5074601;28;20252;-82
2022/03/04 08:26:02;;;;;;;9.80;8.80;;;;;;;;;;5074110;28;20247;-82
2022/03/04 08:28:29;;;;;;;10.60;9.37;;;;;;;;;;5074685;28;20651;-82
2022/03/04 08:30:57;;;;;;;10.07;8.37;;;;;;;;;;5074538;28;20204;-82
2022/03/04 08:33:24;;;;;;;43.93;30.17;;;;;;;;;;5074083;28;20713;-82
2022/03/04 08:35:52;;;;;;;13.67;11.00;;;;;;;;;;5074159;28;20582;-82
2022/03/04 08:38:19;;;;;;;50.33;35.70;;;;;;;;;;5074331;28;20658;-83
2022/03/04 08:40:48;;;;;;;14.67;10.57;;;;;;;;;;5074373;28;20201;-82
2022/03/04 08:43:15;;;;;;;10.80;7.93;;;;;;;;;;5073908;28;20208;-82
2022/03/04 08:45:42;;;;;;;10.40;7.80;;;;;;;;;;5074602;28;20569;-82
2022/03/04 08:48:10;;;;;;;6.67;6.07;;;;;;;;;;5073938;28;20201;-82
2022/03/04 08:50:37;;;;;;;10.93;8.90;;;;;;;;;;5074062;28;20197;-82
2022/03/04 08:53:04;;;;;;;11.70;8.20;;;;;;;;;;5074353;28;20197;-82
2022/03/04 08:55:32;;;;;;;8.73;7.77;;;;;;;;;;5074035;28;20315;-82
2022/03/04 08:58:01;;;;;;;12.30;10.47;;;;;;;;;;5074229;28;20608;-82
2022/03/04 09:00:28;;;;;;;8.90;8.00;;;;;;;;;;5073618;28;20204;-82
2022/03/04 09:02:55;;;;;;;9.20;8.30;;;;;;;;;;5073766;28;20200;-82
2022/03/04 09:05:23;;;;;;;17.97;15.20;;;;;;;;;;5073759;28;20670;-82
2022/03/04 09:07:50;;;;;;;19.07;15.07;;;;;;;;;;5072358;28;20197;-82
2022/03/04 09:10:17;;;;;;;18.93;11.77;;;;;;;;;;5073757;28;20200;-82
2022/03/04 09:12:44;;;;;;;12.27;10.03;;;;;;;;;;5073734;28;20200;-82
2022/03/04 09:15:13;;;;;;;14.87;10.60;;;;;;;;;;5073501;28;20225;-83
2022/03/04 09:17:40;;;;;;;11.27;10.10;;;;;;;;;;5073162;28;20201;-83
2022/03/04 09:20:08;;;;;;;11.93;9.53;;;;;;;;;;5073536;28;20212;-82
2022/03/04 09:22:36;;;;;;;10.73;8.83;;;;;;;;;;5073586;28;20602;-83
2022/03/04 09:25:03;;;;;;;11.17;10.00;;;;;;;;;;5073103;28;20204;-83
2022/03/04 09:27:30;;;;;;;10.73;8.43;;;;;;;;;;5073605;28;20181;-83
2022/03/04 09:29:58;;;;;;;14.90;12.47;;;;;;;;;;5073594;28;20197;-83
2022/03/04 09:32:26;;;;;;;17.13;14.50;;;;;;;;;;5073173;28;20201;-83
2022/03/04 09:34:54;;;;;;;12.63;11.33;;;;;;;;;;5073469;28;20260;-83
2022/03/04 09:37:21;;;;;;;18.23;12.47;;;;;;;;;;5073117;28;20205;-83
2022/03/04 09:39:48;;;;;;;16.13;14.03;;;;;;;;;;5072929;28;20197;-83
2022/03/04 09:42:18;;;;;;;16.33;11.93;;;;;;;;;;5073058;28;20701;-83
2022/03/04 09:44:45;;;;;;;49.50;34.13;;;;;;;;;;5073176;28;20247;-83
2022/03/04 09:47:13;;;;;;;65.73;47.57;;;;;;;;;;5073032;28;20612;-82
2022/03/04 09:49:41;;;;;;;296.67;165.47;;;;;;;;;;5073367;28;20640;-83
2022/03/04 09:52:08;;;;;;;149.30;93.17;;;;;;;;;;5072999;28;20193;-83
2022/03/04 09:54:36;;;;;;;41.03;30.50;;;;;;;;;;5072697;28;20236;-83
2022/03/04 09:57:03;;;;;;;30.20;20.57;;;;;;;;;;5072309;28;20208;-83
2022/03/04 09:59:30;;;;;;;21.90;17.90;;;;;;;;;;5072823;28;20288;-83
2022/03/04 10:01:58;;;;;;;21.23;16.30;;;;;;;;;;5072466;28;20685;-82
2022/03/04 10:04:26;;;;;;;31.13;23.13;;;;;;;;;;5072629;28;20199;-83
2022/03/04 10:06:55;;;;;;;20.20;16.57;;;;;;;;;;5072181;28;20229;-83
2022/03/04 10:09:41;;;;;;;19.77;16.33;;;;;;;;;;5073004;28;20201;-83
2022/03/04 10:12:10;;;;;;;19.63;15.47;;;;;;;;;;5072533;28;20203;-84
2022/03/04 10:14:57;;;;;;;15.87;12.53;;;;;;;;;;5072469;28;20220;-83
2022/03/04 10:17:24;;;;;;;22.13;17.13;;;;;;;;;;5072394;28;20213;-83
2022/03/04 10:19:55;;;;;;;15.53;12.43;;;;;;;;;;5072102;28;20559;-83
2022/03/04 10:22:24;;;;;;;56.67;31.63;;;;;;;;;;5072177;28;20200;-83
2022/03/04 10:24:52;;;;;;;176.20;78.33;;;;;;;;;;5071685;28;20271;-83
2022/03/04 10:27:19;;;;;;;59.20;36.60;;;;;;;;;;5072026;28;20201;-83
2022/03/04 10:29:47;;;;;;;62.17;41.03;;;;;;;;;;5072271;28;20680;-83
2022/03/04 10:32:18;;;;;;;78.43;51.10;;;;;;;;;;5072361;28;20196;-83
2022/03/04 10:34:52;;;;;;;20.37;16.67;;;;;;;;;;5072561;28;20303;-83
2022/03/04 10:37:21;;;;;;;34.37;24.37;;;;;;;;;;5072268;28;20192;-83
2022/03/04 10:40:08;;;;;;;17.53;15.07;;;;;;;;;;5072144;28;20228;-81
2022/03/04 10:42:43;;;;;;;14.30;11.37;;;;;;;;;;5072323;28;20242;-82
2022/03/04 10:45:13;;;;;;;24.30;22.07;;;;;;;;;;5072301;28;20571;-81
2022/03/04 10:47:41;;;;;;;17.30;15.60;;;;;;;;;;5071885;28;20193;-83
2022/03/04 10:50:09;;;;;;;12.87;10.87;;;;;;;;;;5072106;28;20204;-83
2022/03/04 10:52:48;;;;;;;12.27;10.53;;;;;;;;;;5071824;28;20197;-83
2022/03/04 10:55:27;;;;;;;15.03;13.13;;;;;;;;;;5072434;28;20589;-82
2022/03/04 10:57:54;;;;;;;13.00;10.60;;;;;;;;;;5071723;28;20186;-82
2022/03/04 11:00:25;;;;;;;11.30;10.10;;;;;;;;;;5071827;28;20196;-82
2022/03/04 11:02:54;;;;;;;10.80;9.80;;;;;;;;;;5072021;28;20727;-82
2022/03/04 11:05:22;;;;;;;14.03;9.83;;;;;;;;;;5072019;28;20620;-82
2022/03/04 11:07:50;;;;;;;12.30;11.00;;;;;;;;;;5071896;28;20200;-83
2022/03/04 11:10:19;;;;;;;11.77;9.67;;;;;;;;;;5071838;28;20197;-82
2022/03/04 11:12:50;;;;;;;14.50;12.40;;;;;;;;;;5071567;28;20196;-81
2022/03/04 11:15:19;;;;;;;12.10;10.80;;;;;;;;;;5072203;28;20205;-82
2022/03/04 11:17:47;;;;;;;10.30;9.23;;;;;;;;;;5072024;28;20258;-83
2022/03/04 11:20:15;;;;;;;12.03;10.80;;;;;;;;;;5071987;28;20251;-82
2022/03/04 11:22:44;;;;;;;16.43;11.70;;;;;;;;;;5072142;28;20204;-82
2022/03/04 11:25:13;;;;;;;11.57;9.77;;;;;;;;;;5071799;28;20229;-82
2022/03/04 11:27:43;;;;;;;16.23;12.03;;;;;;;;;;5072256;28;20268;-82
2022/03/04 11:30:34;;;;;;;17.23;10.73;;;;;;;;;;5072121;28;20251;-82
2022/03/04 11:33:05;;;;;;;11.17;9.90;;;;;;;;;;5075710;28;20189;-82
2022/03/04 11:36:09;;;;;;;21.60;16.20;;;;;;;;;;5076195;28;20201;-82
2022/03/04 11:39:09;;;;;;;12.37;10.30;;;;;;;;;;5076117;28;20665;-82
2022/03/04 11:41:39;;;;;;;11.07;9.93;;;;;;;;;;5075968;28;20193;-82
2022/03/04 11:44:14;;;;;;;10.60;9.50;;;;;;;;;;5075945;28;20283;-82
2022/03/04 11:46:58;;;;;;;27.23;21.27;;;;;;;;;;5076192;28;20197;-82
2022/03/04 11:49:31;;;;;;;32.93;24.23;;;;;;;;;;5075887;28;20189;-82
2022/03/04 11:52:25;;;;;;;18.27;15.10;;;;;;;;;;5075289;28;20200;-82
2022/03/04 11:55:12;;;;;;;48.53;34.47;;;;;;;;;;5075305;28;20209;-82
2022/03/04 11:57:41;;;;;;;22.63;18.00;;;;;;;;;;5074997;28;20203;-82
2022/03/04 12:00:28;;;;;;;44.57;33.60;;;;;;;;;;5074760;28;20201;-81
2022/03/04 12:02:57;;;;;;;16.40;14.67;;;;;;;;;;5074877;28;20185;-81
2022/03/04 12:05:30;;;;;;;17.63;13.90;;;;;;;;;;5075064;28;20193;-82
2022/03/04 12:08:11;;;;;;;32.10;23.73;;;;;;;;;;5074804;28;20201;-82
2022/03/04 12:10:53;;;;;;;35.57;25.27;;;;;;;;;;5074984;28;20197;-82
2022/03/04 12:13:27;;;;;;;26.27;20.80;;;;;;;;;;5074859;28;20220;-82
2022/03/04 12:15:59;;;;;;;18.63;13.83;;;;;;;;;;5075263;28;20221;-81
2022/03/04 12:18:36;;;;;;;17.50;14.07;;;;;;;;;;5074782;28;20209;-82
2022/03/04 12:21:14;;;;;;;17.03;14.50;;;;;;;;;;5074895;28;20221;-81
2022/03/04 12:23:50;;;;;;;15.00;13.50;;;;;;;;;;5073541;28;20552;-82
2022/03/04 12:26:23;;;;;;;19.77;17.80;;;;;;;;;;5074188;28;20220;-82
2022/03/04 12:28:53;;;;;;;18.63;16.70;;;;;;;;;;5074701;28;20193;-81
2022/03/04 12:31:24;;;;;;;13.93;12.50;;;;;;;;;;5074276;28;20582;-82
2022/03/04 12:33:56;;;;;;;14.53;11.27;;;;;;;;;;5074736;28;20634;-81
2022/03/04 12:36:26;;;;;;;11.37;10.17;;;;;;;;;;5074353;28;20266;-81
2022/03/04 12:38:55;;;;;;;11.90;10.70;;;;;;;;;;5074366;28;20194;-82
2022/03/04 12:41:24;;;;;;;14.83;13.13;;;;;;;;;;5074368;28;20205;-82
2022/03/04 12:43:52;;;;;;;13.83;12.03;;;;;;;;;;5074077;28;20311;-83
2022/03/04 12:46:20;;;;;;;10.23;9.13;;;;;;;;;;5074118;28;20197;-82
2022/03/04 12:48:48;;;;;;;10.90;9.33;;;;;;;;;;5074182;28;20232;-82
2022/03/04 12:51:26;;;;;;;12.03;9.93;;;;;;;;;;5074150;28;20270;-82
2022/03/04 12:53:54;;;;;;;11.17;10.07;;;;;;;;;;5074385;28;20189;-82
2022/03/04 12:56:22;;;;;;;12.57;10.07;;;;;;;;;;5073619;28;20217;-81
2022/03/04 12:58:50;;;;;;;20.30;10.00;;;;;;;;;;5074364;28;20201;-82
2022/03/04 13:01:19;;;;;;;10.60;9.40;;;;;;;;;;5073951;28;20724;-81
2022/03/04 13:03:48;;;;;;;10.67;8.93;;;;;;;;;;5073883;28;20207;-82
2022/03/04 13:06:15;;;;;;;10.70;9.60;;;;;;;;;;5074076;28;20193;-82
2022/03/04 13:08:53;;;;;;;10.00;8.47;;;;;;;;;;5074177;28;20228;-82
2022/03/04 13:11:22;;;;;;;10.13;8.67;;;;;;;;;;5073809;28;20181;-82
2022/03/04 13:13:52;;;;;;;13.40;12.00;;;;;;;;;;5073852;28;20201;-82
2022/03/04 13:16:25;;;;;;;11.53;10.30;;;;;;;;;;5073823;28;20224;-82
2022/03/04 13:18:53;;;;;;;13.57;11.03;;;;;;;;;;5073607;28;20185;-82
2022/03/04 13:21:26;;;;;;;13.10;11.73;;;;;;;;;;5073514;28;20193;-82
2022/03/04 13:23:54;;;;;;;12.97;10.37;;;;;;;;;;5072629;28;20201;-81
2022/03/04 13:26:23;;;;;;;13.07;10.33;;;;;;;;;;5073283;28;20229;-82
2022/03/04 13:28:59;;;;;;;13.57;11.23;;;;;;;;;;5073379;28;20584;-82
2022/03/04 13:31:27;;;;;;;12.87;10.43;;;;;;;;;;5073923;28;20189;-82
2022/03/04 13:34:01;;;;;;;14.20;11.90;;;;;;;;;;5073896;28;20229;-82
2022/03/04 13:36:47;;;;;;;12.33;10.73;;;;;;;;;;5073810;28;20233;-82
2022/03/04 13:39:21;;;;;;;11.43;10.33;;;;;;;;;;5073885;28;20213;-82
2022/03/04 13:41:49;;;;;;;28.40;19.80;;;;;;;;;;5073897;28;20192;-82
2022/03/04 13:44:17;;;;;;;19.20;16.20;;;;;;;;;;5074034;28;20236;-82
2022/03/04 13:47:01;;;;;;;14.07;12.47;;;;;;;;;;5073622;28;20200;-82
2022/03/04 13:49:45;;;;;;;21.53;19.20;;;;;;;;;;5073937;28;20197;-82
2022/03/04 13:52:13;;;;;;;11.03;9.43;;;;;;;;;;5073868;28;20745;-82
2022/03/04 13:54:49;;;;;;;12.67;10.50;;;;;;;;;;5073359;28;20199;-82
2022/03/04 13:57:30;;;;;;;17.30;14.53;;;;;;;;;;5073868;28;20185;-82
2022/03/04 14:00:01;;;;;;;23.50;21.00;;;;;;;;;;5073587;28;20189;-82
2022/03/04 14:02:29;;;;;;;18.73;16.47;;;;;;;;;;5073025;28;20185;-82
2022/03/04 14:04:57;;;;;;;25.10;17.67;;;;;;;;;;5080980;28;20197;-83
2022/03/04 14:07:24;;;;;;;32.03;28.97;;;;;;;;;;5084819;28;20204;-82
2022/03/04 14:09:55;;;;;;;29.33;26.33;;;;;;;;;;5082417;28;20212;-82
2022/03/04 14:12:22;;;;;;;19.23;17.03;;;;;;;;;;5082184;28;20258;-83
2022/03/04 14:14:50;;;;;;;43.23;31.67;;;;;;;;;;5081893;28;20572;-82
2022/03/04 14:17:17;;;;;;;21.47;15.93;;;;;;;;;;5082444;28;20221;-82
2022/03/04 14:19:44;;;;;;;21.13;18.07;;;;;;;;;;5082377;28;20228;-82
2022/03/04 14:22:11;;;;;;;16.53;15.00;;;;;;;;;;5081176;28;20208;-82
2022/03/04 14:24:38;;;;;;;33.37;28.30;;;;;;;;;;5081292;28;20475;-82
2022/03/04 14:27:07;;;;;;;16.83;14.30;;;;;;;;;;5081147;28;20224;-82
2022/03/04 14:29:35;;;;;;;8.07;7.30;;;;;;;;;;5080944;28;20200;-82
2022/03/04 14:32:08;;;;;;;9.03;8.13;;;;;;;;;;5080219;28;20220;-82
2022/03/04 14:34:36;;;;;;;16.70;11.77;;;;;;;;;;5082135;28;20223;-81
2022/03/04 14:37:03;;;;;;;9.60;7.83;;;;;;;;;;5080566;28;20620;-82
2022/03/04 14:39:30;;;;;;;8.20;7.50;;;;;;;;;;5072801;28;20200;-82